Time;durP1;ratioP1;P1;durP2;ratioP2;P2;SDS_P1;SDS_P2;PMS_P1;PMS_P2;Temp;Humidity;BMP_temperature;BMP_pressure;BME280_temperature;BME280_humidity;BME280_pressure;Samples;Min_cycle;Max_cycle;Signal;HPM_P1;HPM_P2
2020/12/19 00:00:49;;;;;;;3.03;2.10;;;;;21.10;100541.00;;;;2066479;28;20295;-73
2020/12/19 00:01:49;;;;;;;2.47;1.97;;;;;21.10;100535.00;;;;2059433;28;20582;-73
2020/12/19 00:02:49;;;;;;;3.03;2.70;;;;;21.10;100538.00;;;;2070695;28;20221;-73
2020/12/19 00:03:50;;;;;;;3.17;2.20;;;;;21.10;100526.00;;;;2076154;28;20221;-73
2020/12/19 00:04:50;;;;;;;2.60;2.30;;;;;21.10;100528.00;;;;2079741;28;20208;-72
2020/12/19 00:05:50;;;;;;;3.80;2.50;;;;;21.10;100527.00;;;;2066330;28;20261;-73
2020/12/19 00:06:51;;;;;;;3.03;2.83;;;;;21.10;100524.00;;;;2067592;28;20210;-74
2020/12/19 00:07:51;;;;;;;3.30;2.30;;;;;21.10;100513.00;;;;2066092;28;20220;-72
2020/12/19 00:08:51;;;;;;;2.50;2.30;;;;;21.10;100527.00;;;;2067775;28;20211;-73
2020/12/19 00:09:52;;;;;;;3.03;2.80;;;;;21.10;100516.00;;;;2067627;28;20220;-72
2020/12/19 00:10:52;;;;;;;4.17;2.50;;;;;21.10;100523.00;;;;2062750;28;20217;-71
2020/12/19 00:11:53;;;;;;;3.83;2.13;;;;;21.10;100523.00;;;;2079256;28;20215;-72
2020/12/19 00:12:59;;;;;;;3.63;2.20;;;;;21.10;100522.00;;;;2065991;28;20738;-74
2020/12/19 00:13:59;;;;;;;3.13;2.42;;;;;21.10;100520.00;;;;2069787;28;20244;-71
2020/12/19 00:14:59;;;;;;;1.87;1.70;;;;;21.10;100526.00;;;;2079661;28;20224;-71
2020/12/19 00:16:00;;;;;;;3.10;2.63;;;;;21.10;100512.00;;;;2056935;28;20712;-72
2020/12/19 00:17:00;;;;;;;2.50;2.30;;;;;21.10;100508.00;;;;2052808;28;20309;-71
2020/12/19 00:18:01;;;;;;;3.50;2.50;;;;;21.10;100513.00;;;;2060885;28;20371;-71
2020/12/19 00:19:05;;;;;;;2.37;2.07;;;;;21.10;100515.00;;;;2069102;28;20213;-72
2020/12/19 00:20:05;;;;;;;2.70;2.50;;;;;21.10;100512.00;;;;2078355;28;20220;-72
2020/12/19 00:21:06;;;;;;;2.70;2.50;;;;;21.10;100505.00;;;;2064194;28;20224;-72
2020/12/19 00:22:06;;;;;;;4.30;2.37;;;;;21.10;100504.00;;;;2061491;28;20228;-72
2020/12/19 00:23:07;;;;;;;4.93;2.30;;;;;21.10;100516.00;;;;2070908;28;20282;-72
2020/12/19 00:24:07;;;;;;;4.13;2.10;;;;;21.00;100518.00;;;;2077018;28;20220;-72
2020/12/19 00:25:07;;;;;;;3.10;2.43;;;;;21.10;100520.00;;;;2066303;28;20208;-71
2020/12/19 00:26:08;;;;;;;2.90;2.40;;;;;21.10;100512.00;;;;2070868;28;20300;-71
2020/12/19 00:27:09;;;;;;;2.70;2.50;;;;;21.00;100505.00;;;;2079462;28;20215;-72
2020/12/19 00:28:10;;;;;;;3.95;2.50;;;;;21.00;100511.00;;;;2062582;28;20595;-72
2020/12/19 00:29:11;;;;;;;3.00;2.57;;;;;21.00;100508.00;;;;2062665;28;20222;-72
2020/12/19 00:30:11;;;;;;;2.85;2.65;;;;;21.00;100499.00;;;;2063166;28;20213;-73
2020/12/19 00:31:11;;;;;;;3.87;2.50;;;;;21.00;100508.00;;;;2062103;28;20243;-72
2020/12/19 00:32:12;;;;;;;3.77;2.67;;;;;21.00;100500.00;;;;2070804;28;20217;-72
2020/12/19 00:33:12;;;;;;;3.00;2.47;;;;;21.00;100497.00;;;;2079196;28;20208;-73
2020/12/19 00:34:13;;;;;;;3.23;2.50;;;;;21.00;100488.00;;;;2063060;28;20217;-72
2020/12/19 00:35:13;;;;;;;3.03;2.50;;;;;21.00;100494.00;;;;2054268;28;20225;-72
2020/12/19 00:36:13;;;;;;;3.50;2.57;;;;;21.00;100491.00;;;;2062731;28;20214;-72
2020/12/19 00:37:13;;;;;;;3.63;2.67;;;;;21.00;100491.00;;;;2080260;28;20224;-72
2020/12/19 00:38:14;;;;;;;3.10;2.80;;;;;21.00;100494.00;;;;2055576;28;20403;-72
2020/12/19 00:39:14;;;;;;;3.57;2.90;;;;;21.00;100492.00;;;;2048157;28;20225;-73
2020/12/19 00:40:15;;;;;;;3.00;2.80;;;;;21.00;100492.00;;;;2063926;28;20756;-72
2020/12/19 00:41:19;;;;;;;2.67;2.30;;;;;21.00;100488.00;;;;2076343;28;20707;-72
2020/12/19 00:42:19;;;;;;;2.58;2.25;;;;;21.00;100493.00;;;;2049832;28;20232;-72
2020/12/19 00:43:19;;;;;;;5.30;2.73;;;;;21.00;100488.00;;;;2063761;28;20217;-72
2020/12/19 00:44:20;;;;;;;3.23;2.70;;;;;21.00;100492.00;;;;2077006;28;20273;-72
2020/12/19 00:45:20;;;;;;;2.50;2.30;;;;;21.00;100498.00;;;;2064667;28;20214;-72
2020/12/19 00:46:20;;;;;;;4.07;2.87;;;;;21.00;100476.00;;;;2071680;28;20219;-72
2020/12/19 00:47:21;;;;;;;2.40;2.20;;;;;21.00;100488.00;;;;2056774;28;20807;-72
2020/12/19 00:48:21;;;;;;;3.03;2.73;;;;;20.90;100489.00;;;;2064066;28;20223;-72
2020/12/19 00:49:21;;;;;;;3.40;3.10;;;;;20.90;100487.00;;;;2056963;28;20222;-72
2020/12/19 00:50:22;;;;;;;2.60;2.40;;;;;20.90;100480.00;;;;2063275;28;20301;-72
2020/12/19 00:51:22;;;;;;;2.93;2.67;;;;;21.00;100488.00;;;;2048920;28;20210;-72
2020/12/19 00:52:23;;;;;;;2.80;2.53;;;;;20.90;100487.00;;;;2055143;28;20220;-72
2020/12/19 00:53:23;;;;;;;3.23;2.20;;;;;21.00;100484.00;;;;2064976;28;20209;-72
2020/12/19 00:54:23;;;;;;;2.50;2.30;;;;;20.90;100479.00;;;;2070402;28;20231;-72
2020/12/19 00:55:24;;;;;;;3.03;2.60;;;;;20.90;100478.00;;;;2052748;28;20225;-72
2020/12/19 00:56:25;;;;;;;3.20;2.70;;;;;20.90;100485.00;;;;2044278;28;20205;-72
2020/12/19 00:57:29;;;;;;;2.75;2.55;;;;;20.90;100478.00;;;;2057066;28;20206;-72
2020/12/19 00:58:30;;;;;;;2.85;2.55;;;;;20.90;100474.00;;;;2038265;28;20214;-72
2020/12/19 00:59:30;;;;;;;2.93;2.73;;;;;20.90;100479.00;;;;2065583;28;20210;-71
2020/12/19 01:00:31;;;;;;;3.83;2.70;;;;;20.90;100473.00;;;;2055257;28;20623;-71
2020/12/19 01:01:31;;;;;;;4.37;2.90;;;;;20.90;100470.00;;;;2047709;28;20214;-71
2020/12/19 01:02:36;;;;;;;2.60;2.40;;;;;20.90;100473.00;;;;2059695;28;20218;-71
2020/12/19 01:03:37;;;;;;;5.85;2.75;;;;;20.90;100462.00;;;;2050876;28;20232;-70
2020/12/19 01:04:37;;;;;;;5.83;2.90;;;;;20.90;100470.00;;;;2061107;28;20234;-68
2020/12/19 01:05:37;;;;;;;4.20;2.30;;;;;20.90;100464.00;;;;2066695;28;20217;-69
2020/12/19 01:06:38;;;;;;;4.60;2.30;;;;;20.90;100459.00;;;;2069322;28;20214;-68
2020/12/19 01:07:39;;;;;;;3.10;2.37;;;;;21.00;100470.00;;;;2067043;28;20263;-68
2020/12/19 01:08:39;;;;;;;3.73;2.80;;;;;21.00;100467.00;;;;2072121;28;20613;-68
2020/12/19 01:09:39;;;;;;;2.73;2.20;;;;;21.00;100460.00;;;;2076006;28;20456;-68
2020/12/19 01:10:40;;;;;;;2.93;2.30;;;;;21.00;100464.00;;;;2080921;28;20224;-69
2020/12/19 01:11:40;;;;;;;3.10;2.43;;;;;20.90;100462.00;;;;2077335;28;20214;-69
2020/12/19 01:12:40;;;;;;;5.73;2.97;;;;;21.00;100459.00;;;;2076134;28;20213;-69
2020/12/19 01:13:41;;;;;;;2.87;2.67;;;;;21.00;100468.00;;;;2077458;28;20236;-69
2020/12/19 01:14:41;;;;;;;2.93;2.73;;;;;20.90;100462.00;;;;2067408;28;20221;-69
2020/12/19 01:15:42;;;;;;;3.73;2.60;;;;;20.90;100462.00;;;;2068717;28;20217;-69
2020/12/19 01:16:42;;;;;;;5.57;2.40;;;;;20.90;100457.00;;;;2075794;28;20320;-69
2020/12/19 01:17:42;;;;;;;3.10;2.67;;;;;20.90;100462.00;;;;2076663;28;20224;-68
2020/12/19 01:18:43;;;;;;;3.90;2.63;;;;;20.90;100441.00;;;;2061997;28;20220;-69
2020/12/19 01:19:44;;;;;;;4.20;2.37;;;;;20.90;100460.00;;;;2043370;28;20218;-68
2020/12/19 01:20:44;;;;;;;2.43;2.27;;;;;20.90;100464.00;;;;2046708;28;20487;-68
2020/12/19 01:21:44;;;;;;;2.53;2.30;;;;;20.90;100454.00;;;;2067532;28;20245;-68
2020/12/19 01:22:45;;;;;;;3.00;2.70;;;;;20.90;100458.00;;;;2066887;28;20220;-68
2020/12/19 01:23:46;;;;;;;2.77;2.20;;;;;20.90;100450.00;;;;2061907;28;20301;-69
2020/12/19 01:24:46;;;;;;;3.00;2.35;;;;;20.90;100459.00;;;;2067700;28;20881;-68
2020/12/19 01:25:46;;;;;;;3.23;2.60;;;;;20.90;100464.00;;;;2072051;28;20230;-69
2020/12/19 01:26:47;;;;;;;2.50;2.30;;;;;20.90;100459.00;;;;2080724;28;20220;-69
2020/12/19 01:27:48;;;;;;;2.80;2.50;;;;;20.90;100459.00;;;;2071738;28;20219;-72
2020/12/19 01:28:48;;;;;;;2.93;2.70;;;;;20.90;100459.00;;;;2072013;28;20465;-70
2020/12/19 01:29:48;;;;;;;3.57;2.70;;;;;20.90;100455.00;;;;2059587;28;20218;-69
2020/12/19 01:30:49;;;;;;;3.30;2.77;;;;;20.90;100455.00;;;;2060279;28;20241;-69
2020/12/19 01:31:49;;;;;;;2.50;2.30;;;;;20.90;100454.00;;;;2076527;28;20212;-70
2020/12/19 01:32:50;;;;;;;2.63;2.40;;;;;20.90;100457.00;;;;2080663;28;20219;-69
2020/12/19 01:33:50;;;;;;;2.60;2.33;;;;;20.90;100454.00;;;;2076073;28;20232;-69
2020/12/19 01:34:50;;;;;;;2.93;2.37;;;;;20.90;100458.00;;;;2076952;28;20212;-69
2020/12/19 01:35:51;;;;;;;2.80;2.60;;;;;20.90;100453.00;;;;2048902;28;20225;-69
2020/12/19 01:36:51;;;;;;;2.60;2.40;;;;;20.90;100450.00;;;;2051725;28;20242;-69
2020/12/19 01:37:51;;;;;;;2.33;2.23;;;;;20.90;100447.00;;;;2059830;28;20216;-69
2020/12/19 01:38:52;;;;;;;2.73;2.50;;;;;20.90;100451.00;;;;2055220;28;20218;-69
2020/12/19 01:39:52;;;;;;;3.43;2.73;;;;;20.90;100444.00;;;;2062453;28;20325;-69
2020/12/19 01:40:54;;;;;;;2.70;2.50;;;;;20.80;100440.00;;;;2063378;28;20253;-69
2020/12/19 01:41:54;;;;;;;2.38;2.17;;;;;20.90;100447.00;;;;2055502;28;20655;-70
2020/12/19 01:42:55;;;;;;;2.83;2.53;;;;;20.90;100451.00;;;;2063423;28;20275;-70
2020/12/19 01:43:57;;;;;;;3.93;2.50;;;;;20.80;100456.00;;;;2066077;28;20237;-70
2020/12/19 01:44:58;;;;;;;2.67;2.47;;;;;20.90;100450.00;;;;2060731;28;20228;-70
2020/12/19 01:45:58;;;;;;;2.50;2.30;;;;;20.90;100449.00;;;;2061835;28;20225;-71
2020/12/19 01:47:00;;;;;;;3.07;2.53;;;;;20.90;100440.00;;;;2073819;28;20708;-72
2020/12/19 01:48:00;;;;;;;4.07;2.50;;;;;20.80;100441.00;;;;2068921;28;20232;-73
2020/12/19 01:49:02;;;;;;;3.03;2.13;;;;;20.80;100436.00;;;;2039611;28;20217;-74
2020/12/19 01:50:05;;;;;;;2.70;2.20;;;;;20.90;100436.00;;;;2061835;28;20266;-73
2020/12/19 01:51:05;;;;;;;2.50;2.30;;;;;20.90;100438.00;;;;2079358;28;20600;-74
2020/12/19 01:52:06;;;;;;;4.43;2.30;;;;;20.90;100437.00;;;;2060068;28;20257;-74
2020/12/19 01:53:07;;;;;;;2.70;2.03;;;;;20.90;100435.00;;;;2039954;28;20293;-74
2020/12/19 01:54:08;;;;;;;2.40;2.20;;;;;20.90;100429.00;;;;2054197;28;20252;-74
2020/12/19 01:55:08;;;;;;;2.35;2.15;;;;;20.90;100442.00;;;;2048439;28;20696;-74
2020/12/19 01:56:09;;;;;;;2.57;2.27;;;;;20.90;100438.00;;;;2063722;28;20209;-74
2020/12/19 01:57:09;;;;;;;2.60;2.40;;;;;20.90;100442.00;;;;2052552;28;20257;-74
2020/12/19 01:58:10;;;;;;;2.43;2.23;;;;;20.90;100437.00;;;;2048483;28;21060;-74
2020/12/19 01:59:13;;;;;;;2.80;2.50;;;;;20.90;100440.00;;;;2056513;28;20241;-74
2020/12/19 02:00:14;;;;;;;3.65;2.40;;;;;20.90;100395.00;;;;2079916;28;20223;-74
2020/12/19 02:01:14;;;;;;;2.30;2.10;;;;;20.90;100435.00;;;;2079787;28;20263;-74
2020/12/19 02:02:15;;;;;;;2.63;2.30;;;;;20.90;100432.00;;;;2071125;28;20217;-73
2020/12/19 02:03:15;;;;;;;3.47;2.50;;;;;20.90;100433.00;;;;2063653;28;20216;-74
2020/12/19 02:04:16;;;;;;;2.23;2.03;;;;;20.90;100436.00;;;;2071854;28;20612;-74
2020/12/19 02:05:16;;;;;;;2.10;1.90;;;;;20.90;100433.00;;;;2055344;28;20286;-74
2020/12/19 02:06:17;;;;;;;3.03;2.37;;;;;20.80;100420.00;;;;2055953;28;20454;-74
2020/12/19 02:07:17;;;;;;;2.53;2.10;;;;;20.80;100424.00;;;;2063541;28;20218;-74
2020/12/19 02:08:18;;;;;;;2.50;2.30;;;;;20.90;100418.00;;;;2047761;28;20229;-74
2020/12/19 02:09:19;;;;;;;6.13;2.60;;;;;20.80;100412.00;;;;2055833;28;20218;-74
2020/12/19 02:10:20;;;;;;;2.40;2.20;;;;;20.80;100384.00;;;;2055339;28;20213;-73
2020/12/19 02:11:21;;;;;;;3.03;2.73;;;;;20.90;100421.00;;;;2048102;28;20218;-74
2020/12/19 02:12:21;;;;;;;2.20;2.00;;;;;20.90;100425.00;;;;2054833;28;20222;-74
2020/12/19 02:13:21;;;;;;;2.50;2.30;;;;;20.90;100425.00;;;;2048286;28;20488;-73
2020/12/19 02:14:22;;;;;;;2.70;2.50;;;;;20.80;100422.00;;;;2062691;28;20229;-74
2020/12/19 02:15:22;;;;;;;2.87;2.30;;;;;20.80;100424.00;;;;2064331;28;20303;-73
2020/12/19 02:16:22;;;;;;;2.70;2.50;;;;;20.80;100419.00;;;;2079583;28;20216;-75
2020/12/19 02:17:23;;;;;;;3.03;2.53;;;;;20.80;100418.00;;;;2073231;28;20255;-75
2020/12/19 02:18:23;;;;;;;2.87;2.53;;;;;20.80;100429.00;;;;2070237;28;20852;-76
2020/12/19 02:19:24;;;;;;;3.27;2.03;;;;;20.80;100421.00;;;;2064637;28;20214;-76
2020/12/19 02:20:24;;;;;;;2.60;2.20;;;;;20.80;100414.00;;;;2063501;28;20219;-76
2020/12/19 02:21:25;;;;;;;2.57;2.33;;;;;20.80;100423.00;;;;2063459;28;20214;-75
2020/12/19 02:22:25;;;;;;;3.40;2.80;;;;;20.80;100403.00;;;;2062116;28;20226;-75
2020/12/19 02:23:25;;;;;;;3.50;2.30;;;;;20.80;100418.00;;;;2055395;28;20265;-76
2020/12/19 02:24:26;;;;;;;3.17;2.87;;;;;20.80;100421.00;;;;2064772;28;20217;-76
2020/12/19 02:25:33;;;;;;;2.43;2.20;;;;;20.80;100414.00;;;;2077942;28;20220;-76
2020/12/19 02:26:34;;;;;;;3.05;2.25;;;;;20.80;100378.00;;;;2079914;28;20216;-76
2020/12/19 02:27:34;;;;;;;2.83;2.60;;;;;20.80;100414.00;;;;2071365;28;20220;-76
2020/12/19 02:28:34;;;;;;;3.03;2.37;;;;;20.80;100405.00;;;;2063449;28;20300;-76
2020/12/19 02:29:35;;;;;;;5.07;2.50;;;;;20.80;100409.00;;;;2063596;28;20224;-76
2020/12/19 02:30:37;;;;;;;2.70;2.50;;;;;20.80;100400.00;;;;2051749;28;20719;-76
2020/12/19 02:31:37;;;;;;;3.38;2.50;;;;;20.80;100397.00;;;;2046173;28;20633;-76
2020/12/19 02:32:37;;;;;;;4.33;2.73;;;;;20.80;100406.00;;;;2057116;28;20309;-76
2020/12/19 02:33:38;;;;;;;5.50;2.47;;;;;20.80;100403.00;;;;2063626;28;20213;-76
2020/12/19 02:34:38;;;;;;;3.13;2.93;;;;;20.80;100409.00;;;;2060270;28;20215;-76
2020/12/19 02:35:38;;;;;;;2.90;2.60;;;;;20.80;100403.00;;;;2046983;28;20334;-76
2020/12/19 02:36:39;;;;;;;7.73;2.40;;;;;20.80;100404.00;;;;2062611;28;20217;-76
2020/12/19 02:37:39;;;;;;;2.47;2.27;;;;;20.80;100406.00;;;;2053229;28;20252;-76
2020/12/19 02:38:39;;;;;;;3.83;2.60;;;;;20.80;100402.00;;;;2063213;28;20226;-76
2020/12/19 02:39:40;;;;;;;2.77;2.57;;;;;20.70;100399.00;;;;2055425;28;20222;-76
2020/12/19 02:40:40;;;;;;;2.40;2.20;;;;;20.70;100400.00;;;;2054997;28;20214;-76
2020/12/19 02:41:44;;;;;;;3.30;2.23;;;;;20.80;100401.00;;;;2062733;28;20275;-76
2020/12/19 02:42:45;;;;;;;3.13;2.30;;;;;20.70;100397.00;;;;2052714;28;20224;-76
2020/12/19 02:43:52;;;;;;;2.67;2.33;;;;;20.70;100395.00;;;;2058492;28;20248;-76
2020/12/19 02:44:53;;;;;;;2.47;2.28;;;;;20.80;100393.00;;;;2062154;28;20305;-77
2020/12/19 02:45:53;;;;;;;2.60;2.40;;;;;20.70;100391.00;;;;2052566;28;20591;-77
2020/12/19 02:46:53;;;;;;;2.53;2.33;;;;;20.70;100395.00;;;;2063271;28;20652;-77
2020/12/19 02:47:54;;;;;;;2.77;2.57;;;;;20.70;100393.00;;;;2066309;28;20607;-76
2020/12/19 02:48:54;;;;;;;2.60;2.40;;;;;20.70;100386.00;;;;2055376;28;20225;-76
2020/12/19 02:49:54;;;;;;;2.97;2.70;;;;;20.70;100396.00;;;;2054593;28;20224;-76
2020/12/19 02:50:55;;;;;;;2.87;2.57;;;;;20.70;100391.00;;;;2061538;28;20314;-77
2020/12/19 02:51:55;;;;;;;2.60;2.40;;;;;20.70;100390.00;;;;2070666;28;20279;-76
2020/12/19 02:52:55;;;;;;;2.87;2.63;;;;;20.70;100396.00;;;;2070637;28;20228;-76
2020/12/19 02:53:56;;;;;;;2.40;2.30;;;;;20.70;100389.00;;;;2078871;28;20251;-76
2020/12/19 02:54:56;;;;;;;3.00;2.40;;;;;20.70;100391.00;;;;2067545;28;20220;-76
2020/12/19 02:56:00;;;;;;;2.70;2.50;;;;;20.70;100386.00;;;;2048425;28;20270;-76
2020/12/19 02:57:00;;;;;;;2.75;2.55;;;;;20.70;100386.00;;;;2057310;28;20593;-76
2020/12/19 02:58:01;;;;;;;2.40;2.27;;;;;20.70;100383.00;;;;2063177;28;20222;-76
2020/12/19 02:59:01;;;;;;;3.00;2.70;;;;;20.70;100389.00;;;;2063121;28;20344;-76
2020/12/19 03:00:02;;;;;;;2.70;2.50;;;;;20.70;100387.00;;;;2062642;28;20220;-76
2020/12/19 03:01:03;;;;;;;2.47;2.28;;;;;20.70;100388.00;;;;2049654;28;20248;-76
2020/12/19 03:02:03;;;;;;;4.60;2.60;;;;;20.70;100380.00;;;;2071436;28;20687;-76
2020/12/19 03:03:03;;;;;;;2.80;2.60;;;;;20.70;100383.00;;;;2079603;28;20405;-75
2020/12/19 03:04:04;;;;;;;2.40;2.20;;;;;20.70;100378.00;;;;2064751;28;20234;-76
2020/12/19 03:05:04;;;;;;;2.87;2.67;;;;;20.70;100376.00;;;;2069305;28;20221;-76
2020/12/19 03:06:04;;;;;;;2.90;2.70;;;;;20.70;100386.00;;;;2073539;28;20213;-76
2020/12/19 03:07:05;;;;;;;2.50;2.30;;;;;20.70;100380.00;;;;2069608;28;20236;-76
2020/12/19 03:08:05;;;;;;;3.47;2.83;;;;;20.70;100389.00;;;;2064572;28;20241;-78
2020/12/19 03:09:05;;;;;;;2.60;2.40;;;;;20.70;100391.00;;;;2078568;28;20246;-78
2020/12/19 03:10:05;;;;;;;2.70;2.50;;;;;20.70;100385.00;;;;2064613;28;20241;-78
2020/12/19 03:11:06;;;;;;;2.80;2.60;;;;;20.70;100376.00;;;;2069864;28;20255;-78
2020/12/19 03:12:06;;;;;;;2.63;2.43;;;;;20.70;100385.00;;;;2064401;28;20263;-78
2020/12/19 03:13:07;;;;;;;2.47;2.27;;;;;20.70;100384.00;;;;2069951;28;20217;-78
2020/12/19 03:14:07;;;;;;;2.43;2.23;;;;;20.70;100379.00;;;;2073113;28;20221;-78
2020/12/19 03:15:07;;;;;;;2.80;2.60;;;;;20.70;100378.00;;;;2069744;28;20239;-78
2020/12/19 03:16:08;;;;;;;2.40;2.13;;;;;20.70;100371.00;;;;2056183;28;20590;-78
2020/12/19 03:17:08;;;;;;;3.00;2.70;;;;;20.70;100386.00;;;;2069923;28;20677;-78
2020/12/19 03:18:08;;;;;;;2.60;2.40;;;;;20.70;100372.00;;;;2063881;28;20252;-78
2020/12/19 03:19:09;;;;;;;3.00;2.80;;;;;20.70;100380.00;;;;2079025;28;20223;-78
2020/12/19 03:20:09;;;;;;;2.53;2.33;;;;;20.70;100380.00;;;;2064030;28;20225;-78
2020/12/19 03:21:09;;;;;;;3.60;2.60;;;;;20.70;100381.00;;;;2062768;28;20243;-78
2020/12/19 03:22:09;;;;;;;2.60;2.40;;;;;20.60;100381.00;;;;2063044;28;20358;-79
2020/12/19 03:23:10;;;;;;;2.60;2.40;;;;;20.60;100383.00;;;;2070232;28;20231;-77
2020/12/19 03:24:10;;;;;;;2.73;2.53;;;;;20.60;100371.00;;;;2063826;28;20308;-78
2020/12/19 03:25:10;;;;;;;3.80;2.40;;;;;20.70;100381.00;;;;2061990;28;20260;-78
2020/12/19 03:26:11;;;;;;;2.33;2.20;;;;;20.60;100374.00;;;;2062951;28;20218;-74
2020/12/19 03:27:11;;;;;;;2.90;2.63;;;;;20.60;100379.00;;;;2070910;28;20233;-74
2020/12/19 03:28:11;;;;;;;2.53;2.20;;;;;20.60;100376.00;;;;2062999;28;20222;-74
2020/12/19 03:29:12;;;;;;;2.70;2.50;;;;;20.60;100374.00;;;;2079877;28;20628;-74
2020/12/19 03:30:12;;;;;;;2.57;2.37;;;;;20.60;100374.00;;;;2072261;28;20571;-74
2020/12/19 03:31:12;;;;;;;2.80;2.20;;;;;20.60;100365.00;;;;2070550;28;20241;-74
2020/12/19 03:32:13;;;;;;;3.03;2.80;;;;;20.60;100363.00;;;;2055007;28;20297;-74
2020/12/19 03:33:13;;;;;;;2.47;2.27;;;;;20.60;100369.00;;;;2070612;28;20204;-73
2020/12/19 03:34:13;;;;;;;3.10;2.60;;;;;20.60;100368.00;;;;2063398;28;20213;-74
2020/12/19 03:35:14;;;;;;;2.63;2.40;;;;;20.60;100367.00;;;;2070499;28;20218;-74
2020/12/19 03:36:14;;;;;;;3.00;2.70;;;;;20.60;100364.00;;;;2062673;28;20218;-74
2020/12/19 03:37:14;;;;;;;2.57;2.37;;;;;20.60;100368.00;;;;2070895;28;20207;-74
2020/12/19 03:38:15;;;;;;;2.63;2.43;;;;;20.60;100357.00;;;;2062858;28;20210;-75
2020/12/19 03:39:15;;;;;;;2.63;2.40;;;;;20.60;100366.00;;;;2070991;28;20219;-75
2020/12/19 03:40:15;;;;;;;2.80;2.60;;;;;20.60;100366.00;;;;2063186;28;20217;-75
2020/12/19 03:41:16;;;;;;;2.83;2.43;;;;;20.60;100368.00;;;;2052555;28;20253;-76
2020/12/19 03:42:16;;;;;;;2.53;2.33;;;;;20.60;100355.00;;;;2053982;28;20209;-75
2020/12/19 03:43:16;;;;;;;2.90;2.70;;;;;20.60;100367.00;;;;2043277;28;20210;-76
2020/12/19 03:44:17;;;;;;;2.83;2.53;;;;;20.60;100367.00;;;;2054600;28;20261;-76
2020/12/19 03:45:17;;;;;;;2.90;2.63;;;;;20.60;100368.00;;;;2067583;28;20215;-75
2020/12/19 03:46:17;;;;;;;2.90;2.47;;;;;20.60;100363.00;;;;2053983;28;20268;-75
2020/12/19 03:47:18;;;;;;;2.47;2.27;;;;;20.60;100351.00;;;;2054181;28;20212;-76
2020/12/19 03:48:18;;;;;;;3.00;2.70;;;;;20.60;100355.00;;;;2062312;28;20209;-75
2020/12/19 03:49:18;;;;;;;2.50;2.30;;;;;20.60;100353.00;;;;2078504;28;20714;-75
2020/12/19 03:50:19;;;;;;;4.27;2.80;;;;;20.60;100354.00;;;;2060796;28;20643;-75
2020/12/19 03:51:19;;;;;;;2.67;2.47;;;;;20.60;100352.00;;;;2070882;28;20630;-75
2020/12/19 03:52:19;;;;;;;2.97;2.77;;;;;20.60;100353.00;;;;2076793;28;20211;-76
2020/12/19 03:53:20;;;;;;;2.80;2.60;;;;;20.60;100347.00;;;;2063341;28;20227;-75
2020/12/19 03:54:20;;;;;;;2.90;2.53;;;;;20.60;100346.00;;;;2070606;28;20220;-76
2020/12/19 03:55:21;;;;;;;2.93;2.70;;;;;20.60;100349.00;;;;2067960;28;20201;-76
2020/12/19 03:56:21;;;;;;;2.87;2.67;;;;;20.60;100357.00;;;;2079619;28;20212;-75
2020/12/19 03:57:21;;;;;;;2.90;2.60;;;;;20.60;100343.00;;;;2070913;28;20231;-75
2020/12/19 03:58:22;;;;;;;2.57;2.37;;;;;20.60;100347.00;;;;2062958;28;20283;-76
2020/12/19 03:59:22;;;;;;;2.93;2.73;;;;;20.60;100345.00;;;;2062674;28;20208;-76
2020/12/19 04:00:23;;;;;;;2.97;2.77;;;;;20.60;100349.00;;;;2062804;28;20217;-76
2020/12/19 04:01:23;;;;;;;3.93;2.60;;;;;20.60;100344.00;;;;2063856;28;20279;-76
2020/12/19 04:02:23;;;;;;;2.73;2.53;;;;;20.60;100346.00;;;;2070173;28;20208;-76
2020/12/19 04:03:23;;;;;;;2.57;2.37;;;;;20.60;100349.00;;;;2078263;28;20215;-76
2020/12/19 04:04:24;;;;;;;3.37;2.60;;;;;20.60;100349.00;;;;2076819;28;20211;-76
2020/12/19 04:05:24;;;;;;;2.97;2.77;;;;;20.60;100338.00;;;;2079334;28;20238;-76
2020/12/19 04:06:25;;;;;;;2.97;2.77;;;;;20.60;100345.00;;;;2062754;28;20257;-76
2020/12/19 04:07:25;;;;;;;3.30;3.00;;;;;20.60;100353.00;;;;2052900;28;20227;-76
2020/12/19 04:08:25;;;;;;;3.13;2.83;;;;;20.60;100346.00;;;;2068106;28;20233;-76
2020/12/19 04:09:25;;;;;;;2.63;2.43;;;;;20.60;100344.00;;;;2070883;28;20202;-75
2020/12/19 04:10:26;;;;;;;2.80;2.60;;;;;20.60;100344.00;;;;2070962;28;20215;-76
2020/12/19 04:11:26;;;;;;;2.67;2.47;;;;;20.60;100345.00;;;;2061516;28;20233;-75
2020/12/19 04:12:26;;;;;;;2.80;2.60;;;;;20.60;100348.00;;;;2049828;28;20236;-76
2020/12/19 04:13:27;;;;;;;3.27;3.07;;;;;20.60;100342.00;;;;2063886;28;20256;-76
2020/12/19 04:14:37;;;;;;;2.70;2.50;;;;;20.60;100347.00;;;;2070044;28;20238;-76
2020/12/19 04:15:37;;;;;;;2.65;2.45;;;;;20.60;100339.00;;;;2064427;28;20227;-76
2020/12/19 04:16:39;;;;;;;2.77;2.57;;;;;20.60;100353.00;;;;2058367;28;20695;-76
2020/12/19 04:17:40;;;;;;;3.10;2.90;;;;;20.60;100349.00;;;;2069199;28;20217;-75
2020/12/19 04:18:40;;;;;;;3.40;2.70;;;;;20.60;100342.00;;;;2075688;28;20220;-75
2020/12/19 04:19:41;;;;;;;5.03;2.70;;;;;20.50;100325.00;;;;2081131;28;20206;-75
2020/12/19 04:20:41;;;;;;;2.80;2.60;;;;;20.60;100335.00;;;;2064253;28;20715;-75
2020/12/19 04:21:42;;;;;;;2.27;2.17;;;;;20.60;100341.00;;;;2056283;28;20984;-75
2020/12/19 04:22:42;;;;;;;2.97;2.67;;;;;20.50;100322.00;;;;2068923;28;20746;-76
2020/12/19 04:23:42;;;;;;;3.30;3.10;;;;;20.50;100334.00;;;;2067715;28;20726;-76
2020/12/19 04:24:43;;;;;;;3.00;2.77;;;;;20.60;100314.00;;;;2068396;28;20275;-76
2020/12/19 04:25:43;;;;;;;3.00;2.80;;;;;20.50;100334.00;;;;2064114;28;20296;-74
2020/12/19 04:26:43;;;;;;;2.70;2.50;;;;;20.50;100335.00;;;;2064164;28;20211;-74
2020/12/19 04:27:44;;;;;;;3.10;2.80;;;;;20.60;100330.00;;;;2081037;28;20222;-74
2020/12/19 04:28:44;;;;;;;3.47;2.90;;;;;20.60;100319.00;;;;2077252;28;20252;-74
2020/12/19 04:29:45;;;;;;;2.80;2.60;;;;;20.50;100330.00;;;;2068101;28;20204;-74
2020/12/19 04:30:45;;;;;;;2.97;2.77;;;;;20.50;100335.00;;;;2068643;28;20253;-74
2020/12/19 04:31:45;;;;;;;3.37;3.07;;;;;20.50;100335.00;;;;2068249;28;20212;-78
2020/12/19 04:32:46;;;;;;;2.87;2.63;;;;;20.50;100333.00;;;;2068124;28;20212;-78
2020/12/19 04:33:46;;;;;;;3.40;3.10;;;;;20.60;100335.00;;;;2060135;28;20224;-78
2020/12/19 04:34:46;;;;;;;2.90;2.70;;;;;20.50;100340.00;;;;2060185;28;20204;-79
2020/12/19 04:35:47;;;;;;;2.80;2.60;;;;;20.50;100317.00;;;;2060298;28;20319;-78
2020/12/19 04:36:47;;;;;;;2.90;2.67;;;;;20.50;100336.00;;;;2081071;28;20314;-78
2020/12/19 04:37:47;;;;;;;3.30;3.00;;;;;20.50;100333.00;;;;2076713;28;20225;-78
2020/12/19 04:38:48;;;;;;;2.50;2.40;;;;;20.50;100338.00;;;;2068420;28;20328;-78
2020/12/19 04:39:48;;;;;;;2.90;2.70;;;;;20.50;100337.00;;;;2067962;28;20220;-78
2020/12/19 04:40:48;;;;;;;3.30;3.10;;;;;20.50;100325.00;;;;2068462;28;20232;-79
2020/12/19 04:41:49;;;;;;;3.23;2.93;;;;;20.50;100324.00;;;;2067836;28;20724;-78
2020/12/19 04:42:49;;;;;;;2.63;2.43;;;;;20.50;100332.00;;;;2068630;28;20718;-78
2020/12/19 04:43:49;;;;;;;2.97;2.77;;;;;20.50;100326.00;;;;2063682;28;20213;-78
2020/12/19 04:44:50;;;;;;;2.83;2.63;;;;;20.50;100323.00;;;;2060544;28;20226;-78
2020/12/19 04:45:50;;;;;;;3.47;3.17;;;;;20.50;100331.00;;;;2059641;28;20384;-78
2020/12/19 04:46:50;;;;;;;3.33;3.03;;;;;20.50;100330.00;;;;2060687;28;20242;-78
2020/12/19 04:47:51;;;;;;;2.77;2.57;;;;;20.50;100319.00;;;;2075483;28;20228;-78
2020/12/19 04:48:51;;;;;;;3.20;3.00;;;;;20.50;100325.00;;;;2051426;28;20209;-78
2020/12/19 04:49:52;;;;;;;3.20;3.00;;;;;20.50;100322.00;;;;2056178;28;20296;-78
2020/12/19 04:50:52;;;;;;;2.90;2.70;;;;;20.40;100324.00;;;;2052834;28;20230;-78
2020/12/19 04:51:53;;;;;;;3.23;3.00;;;;;20.40;100322.00;;;;2052874;28;20221;-78
2020/12/19 04:52:53;;;;;;;3.20;3.00;;;;;20.50;100324.00;;;;2067195;28;20279;-78
2020/12/19 04:53:56;;;;;;;2.83;2.63;;;;;20.50;100326.00;;;;2069129;28;20239;-79
2020/12/19 04:54:56;;;;;;;3.10;2.90;;;;;20.50;100330.00;;;;2068124;28;20300;-78
2020/12/19 04:55:57;;;;;;;2.83;2.63;;;;;20.50;100333.00;;;;2063900;28;20212;-79
2020/12/19 04:56:57;;;;;;;3.10;2.87;;;;;20.50;100323.00;;;;2072053;28;20258;-78
2020/12/19 04:57:57;;;;;;;2.87;2.67;;;;;20.50;100314.00;;;;2071827;28;20263;-78
2020/12/19 04:58:59;;;;;;;3.37;3.17;;;;;20.50;100317.00;;;;2066532;28;20252;-78
2020/12/19 04:59:59;;;;;;;2.92;2.72;;;;;20.50;100309.00;;;;2053661;28;20269;-78